createdAt,value
2022-08-05T00:02:19.364Z,22.50
2022-08-05T00:04:47.526Z,22.00
2022-08-05T00:07:59.697Z,22.90
2022-08-05T00:10:10.693Z,21.90
2022-08-05T00:12:55.900Z,20.60
2022-08-05T00:15:58.155Z,20.60
2022-08-05T00:18:21.641Z,22.90
2022-08-05T00:20:50.812Z,21.50
2022-08-05T00:23:31.025Z,20.60
2022-08-05T00:26:07.193Z,21.30
2022-08-05T00:28:35.560Z,20.60
2022-08-05T00:31:04.546Z,21.50
2022-08-05T00:34:55.925Z,20.70
2022-08-05T00:37:11.629Z,21.60
2022-08-05T00:39:13.916Z,20.70
2022-08-05T00:41:51.622Z,23.30
2022-08-05T00:44:20.793Z,20.60
2022-08-05T00:46:47.832Z,21.40
2022-08-05T00:49:21.304Z,22.90
2022-08-05T00:51:51.553Z,20.70
2022-08-05T00:54:20.297Z,20.70
2022-08-05T00:56:51.728Z,21.80
2022-08-05T00:59:20.569Z,20.70
2022-08-05T01:01:48.853Z,20.70
2022-08-05T01:04:20.339Z,22.70
2022-08-05T01:06:53.909Z,20.70
2022-08-05T01:09:22.719Z,20.70
2022-08-05T01:11:55.698Z,21.60
2022-08-05T01:14:52.658Z,20.70
2022-08-05T01:17:47.056Z,20.70
2022-08-05T01:20:48.819Z,20.70
2022-08-05T01:23:57.902Z,20.80
2022-08-05T01:27:19.227Z,20.80
2022-08-05T01:29:52.861Z,20.80
2022-08-05T01:32:27.725Z,20.70
2022-08-05T01:35:04.505Z,22.90
2022-08-05T01:37:47.613Z,20.80
2022-08-05T01:40:19.679Z,20.80
2022-08-05T01:42:57.302Z,21.80
2022-08-05T01:45:27.716Z,20.80
2022-08-05T01:48:04.253Z,20.70
2022-08-05T01:50:41.431Z,20.70
2022-08-05T01:53:57.484Z,20.70
2022-08-05T01:58:29.306Z,21.40
2022-08-05T01:59:09.227Z,20.70
2022-08-05T02:01:40.383Z,20.70
2022-08-05T02:04:10.763Z,21.80
2022-08-05T02:06:39.481Z,20.60
2022-08-05T02:09:08.149Z,22.00
2022-08-05T02:12:05.728Z,20.60
2022-08-05T02:15:22.144Z,20.50
2022-08-05T02:18:30.887Z,20.50
2022-08-05T02:21:06.557Z,20.40
2022-08-05T02:23:48.898Z,20.40
2022-08-05T02:26:26.504Z,20.40
2022-08-05T02:28:56.401Z,20.40
2022-08-05T02:31:34.935Z,21.60
2022-08-05T02:34:10.094Z,20.40
2022-08-05T02:36:48.343Z,20.40
2022-08-05T02:39:21.528Z,20.40
2022-08-05T02:42:00.603Z,20.40
2022-08-05T02:44:31.970Z,20.40
2022-08-05T02:47:01.199Z,20.40
2022-08-05T02:49:37.701Z,20.40
2022-08-05T02:52:13.707Z,22.00
2022-08-05T02:54:58.617Z,22.50
2022-08-05T02:58:09.912Z,20.90
2022-08-05T03:00:17.859Z,20.50
2022-08-05T03:02:48.585Z,20.50
2022-08-05T03:05:17.071Z,20.50
2022-08-05T03:08:06.896Z,22.00
2022-08-05T03:10:35.845Z,20.80
2022-08-05T03:15:28.433Z,22.40
2022-08-05T03:17:57.855Z,20.50
2022-08-05T03:20:26.893Z,21.10
2022-08-05T03:22:57.452Z,22.00
2022-08-05T03:25:33.054Z,20.50
2022-08-05T03:28:14.620Z,20.50
2022-08-05T03:30:48.372Z,22.10
2022-08-05T03:33:16.876Z,22.60
2022-08-05T03:35:48.440Z,20.80
2022-08-05T03:38:17.560Z,21.20
2022-08-05T03:41:00.318Z,21.00
2022-08-05T03:44:08.790Z,21.90
2022-08-05T03:46:22.946Z,20.80
2022-08-05T03:48:57.646Z,20.30
2022-08-05T03:52:37.529Z,20.70
2022-08-05T03:55:07.166Z,20.40
2022-08-05T03:57:41.393Z,20.30
2022-08-05T04:00:15.972Z,20.10
2022-08-05T04:02:57.737Z,20.10
2022-08-05T04:05:33.675Z,21.00
2022-08-05T04:08:14.480Z,20.00
2022-08-05T04:10:50.198Z,20.00
2022-08-05T04:13:18.932Z,20.00
2022-08-05T04:16:03.095Z,20.00
2022-08-05T04:18:34.551Z,21.10
2022-08-05T04:21:05.058Z,19.70
2022-08-05T04:24:05.128Z,20.80
2022-08-05T04:26:22.900Z,19.90
2022-08-05T04:28:51.210Z,22.00
2022-08-05T04:31:19.988Z,20.00
2022-08-05T04:34:18.439Z,21.90
2022-08-05T04:36:46.005Z,19.90
2022-08-05T04:39:18.377Z,19.80
2022-08-05T04:41:48.069Z,21.80
2022-08-05T04:44:20.977Z,20.40
2022-08-05T04:46:48.692Z,21.60
2022-08-05T04:49:15.587Z,20.30
2022-08-05T04:51:44.467Z,21.60
2022-08-05T04:54:12.166Z,19.90
2022-08-05T04:56:39.561Z,22.00
2022-08-05T04:59:21.978Z,19.90
2022-08-05T05:02:07.624Z,21.40
2022-08-05T05:04:43.853Z,20.90
2022-08-05T05:07:17.287Z,20.00
2022-08-05T05:09:45.579Z,20.00
2022-08-05T05:12:12.571Z,20.10
2022-08-05T05:14:49.186Z,20.10
2022-08-05T05:17:23.470Z,20.10
2022-08-05T05:19:55.152Z,20.20
2022-08-05T05:22:26.606Z,20.20
2022-08-05T05:24:57.373Z,20.20
2022-08-05T05:27:44.230Z,21.20
2022-08-05T05:30:29.678Z,20.30
2022-08-05T05:33:16.010Z,20.30
2022-08-05T05:35:48.651Z,20.30
2022-08-05T05:38:22.507Z,22.50
2022-08-05T05:40:56.414Z,20.40
2022-08-05T05:43:56.449Z,22.70
2022-08-05T05:46:17.470Z,21.70
2022-08-05T05:48:47.726Z,20.40
2022-08-05T05:51:23.767Z,20.60
2022-08-05T05:53:57.167Z,21.20
2022-08-05T05:56:33.775Z,22.70
2022-08-05T05:59:05.896Z,20.40
2022-08-05T06:01:40.134Z,20.50
2022-08-05T06:04:11.753Z,20.40
2022-08-05T06:06:47.542Z,22.00
2022-08-05T06:09:35.406Z,20.20
2022-08-05T06:12:05.338Z,20.40
2022-08-05T06:14:34.671Z,20.50
2022-08-05T06:17:22.096Z,21.90
2022-08-05T06:19:57.150Z,20.50
2022-08-05T06:22:33.634Z,20.50
2022-08-05T06:25:25.012Z,21.40
2022-08-05T06:28:11.467Z,22.30
2022-08-05T06:30:36.308Z,22.90
2022-08-05T06:33:03.294Z,21.90
2022-08-05T06:36:07.052Z,20.80
2022-08-05T06:38:17.998Z,21.90
2022-08-05T06:41:04.277Z,20.90
2022-08-05T06:43:57.544Z,21.00
2022-08-05T06:46:18.849Z,21.20
2022-08-05T06:48:56.690Z,22.10
2022-08-05T06:51:29.946Z,21.20
2022-08-05T06:54:03.348Z,21.40
2022-08-05T06:56:34.814Z,21.40
2022-08-05T06:59:08.686Z,21.40
2022-08-05T07:01:37.136Z,22.90
2022-08-05T07:04:07.914Z,21.50
2022-08-05T07:06:35.039Z,21.60
2022-08-05T07:09:04.178Z,21.60
2022-08-05T07:11:37.006Z,21.60
2022-08-05T07:14:29.294Z,21.60
2022-08-05T07:18:00.930Z,23.60
2022-08-05T07:22:39.420Z,21.70
2022-08-05T07:25:55.489Z,21.60
2022-08-05T07:28:04.236Z,22.30
2022-08-05T07:30:39.026Z,23.80
2022-08-05T07:33:16.113Z,21.90
2022-08-05T07:36:01.693Z,20.90
2022-08-05T07:38:42.577Z,24.40
2022-08-05T07:42:08.401Z,22.30
2022-08-05T07:44:19.315Z,22.50
2022-08-05T07:46:49.787Z,24.20
2022-08-05T07:49:18.660Z,22.90
2022-08-05T07:51:53.049Z,24.50
2022-08-05T07:54:30.821Z,24.20
2022-08-05T07:57:14.028Z,23.90
2022-08-05T07:59:49.574Z,23.10
2022-08-05T08:02:18.025Z,22.50
2022-08-05T08:04:49.392Z,23.50
2022-08-05T08:07:22.482Z,23.50
2022-08-05T08:09:52.769Z,24.00
2022-08-05T08:12:36.931Z,23.00
2022-08-05T08:15:15.285Z,25.80
2022-08-05T08:17:52.344Z,22.90
2022-08-05T08:21:00.371Z,23.00
2022-08-05T08:24:02.215Z,23.00
2022-08-05T08:26:00.672Z,23.90
2022-08-05T08:28:36.926Z,24.00
2022-08-05T08:31:10.083Z,25.00
2022-08-05T08:33:43.698Z,24.30
2022-08-05T08:36:37.535Z,26.10
2022-08-05T08:38:58.139Z,23.70
2022-08-05T08:41:52.563Z,23.80
2022-08-05T08:45:20.710Z,23.80
2022-08-05T08:47:22.351Z,26.20
2022-08-05T08:50:23.369Z,23.90
2022-08-05T08:53:07.937Z,23.90
2022-08-05T08:56:04.996Z,24.00
2022-08-05T08:58:26.150Z,24.00
2022-08-05T09:01:15.561Z,24.10
2022-08-05T09:03:48.221Z,24.20
2022-08-05T09:06:21.276Z,25.50
2022-08-05T09:08:51.005Z,24.50
2022-08-05T09:11:18.249Z,24.50
2022-08-05T09:14:54.344Z,24.70
2022-08-05T09:16:53.035Z,24.80
2022-08-05T09:19:21.459Z,27.30
2022-08-05T09:22:21.829Z,27.70
2022-08-05T09:24:44.860Z,25.20
2022-08-05T09:28:05.138Z,24.70
2022-08-05T09:30:25.509Z,25.20
2022-08-05T09:32:52.968Z,25.20
2022-08-05T09:35:26.784Z,25.20
2022-08-05T09:38:16.648Z,23.30
2022-08-05T09:40:52.486Z,25.30
2022-08-05T09:43:41.560Z,25.50
2022-08-05T09:46:32.120Z,25.50
2022-08-05T09:49:07.754Z,25.50
2022-08-05T09:51:48.787Z,25.40
2022-08-05T09:54:29.538Z,25.20
2022-08-05T09:56:57.587Z,25.10
2022-08-05T09:59:28.074Z,25.00
2022-08-05T10:01:57.850Z,26.80
2022-08-05T10:04:38.485Z,25.00
2022-08-05T10:07:20.541Z,25.20
2022-08-05T10:10:14.403Z,25.40
2022-08-05T10:12:50.530Z,25.60
2022-08-05T10:15:34.448Z,25.80
2022-08-05T10:18:16.654Z,25.90
2022-08-05T10:20:57.077Z,26.00
2022-08-05T10:23:55.479Z,26.00
2022-08-05T10:26:18.700Z,26.00
2022-08-05T10:28:51.287Z,25.90
2022-08-05T10:32:52.877Z,25.80
2022-08-05T10:34:11.232Z,25.70
2022-08-05T10:36:41.650Z,25.70
2022-08-05T10:40:04.162Z,25.80
2022-08-05T10:42:33.636Z,25.50
2022-08-05T10:45:21.419Z,26.30
2022-08-05T10:48:30.213Z,27.50
2022-08-05T10:50:59.284Z,25.60
2022-08-05T10:53:51.719Z,26.60
2022-08-05T10:56:26.277Z,25.90
2022-08-05T10:58:53.270Z,26.00
2022-08-05T11:01:54.837Z,26.20
2022-08-05T11:04:23.490Z,26.40
2022-08-05T11:07:04.521Z,26.70
2022-08-05T11:09:48.499Z,26.80
2022-08-05T11:12:24.503Z,26.90
2022-08-05T11:15:20.054Z,27.00
2022-08-05T11:18:15.045Z,27.10
2022-08-05T11:20:50.941Z,27.10
2022-08-05T11:24:03.912Z,27.20
2022-08-05T11:26:32.517Z,27.30
2022-08-05T11:29:12.196Z,27.30
2022-08-05T11:31:58.242Z,27.40
2022-08-05T11:34:51.125Z,27.50
2022-08-05T11:38:28.890Z,27.50
2022-08-05T11:41:34.775Z,27.60
2022-08-05T11:44:40.212Z,27.90
2022-08-05T11:47:12.131Z,27.70
2022-08-05T11:49:43.262Z,27.70
2022-08-05T11:52:29.304Z,28.10
2022-08-05T11:54:58.786Z,27.90
2022-08-05T11:58:08.046Z,28.10
2022-08-05T12:00:30.743Z,28.00
2022-08-05T12:02:58.068Z,27.90
2022-08-05T12:05:32.337Z,27.70
2022-08-05T12:08:09.790Z,27.50
2022-08-05T12:10:45.412Z,27.40
2022-08-05T12:13:28.344Z,27.30
2022-08-05T12:16:14.615Z,27.20
2022-08-05T12:18:52.300Z,27.10
2022-08-05T12:21:31.868Z,28.00
2022-08-05T12:24:28.530Z,27.10
2022-08-05T12:26:57.308Z,27.20
2022-08-05T12:29:27.423Z,27.30
2022-08-05T12:32:01.963Z,27.40
2022-08-05T12:34:33.703Z,27.60
2022-08-05T12:37:17.566Z,27.20
2022-08-05T12:39:53.863Z,27.20
2022-08-05T12:42:25.354Z,27.20
2022-08-05T12:44:52.519Z,27.10
2022-08-05T12:47:32.896Z,27.10
2022-08-05T12:50:13.354Z,27.10
2022-08-05T12:52:42.502Z,28.40
2022-08-05T12:55:23.761Z,27.00
2022-08-05T12:58:51.003Z,27.60
2022-08-05T13:02:02.287Z,26.80
2022-08-05T13:03:42.329Z,26.90
2022-08-05T13:06:17.774Z,28.80
2022-08-05T13:08:51.473Z,27.00
2022-08-05T13:11:59.982Z,29.10
2022-08-05T13:14:36.429Z,27.20
2022-08-05T13:17:25.081Z,27.30
2022-08-05T13:20:04.200Z,27.30
2022-08-05T13:22:33.673Z,27.40
2022-08-05T13:25:19.551Z,27.50
2022-08-05T13:27:56.116Z,27.50
2022-08-05T13:30:33.775Z,27.40
2022-08-05T13:33:02.490Z,27.30
2022-08-05T13:35:42.603Z,27.30
2022-08-05T13:38:14.525Z,27.30
2022-08-05T13:40:55.519Z,27.30
2022-08-05T13:43:22.488Z,28.70
2022-08-05T13:45:50.795Z,27.50
2022-08-05T13:48:58.582Z,27.50
2022-08-05T13:51:09.901Z,27.60
2022-08-05T13:53:47.764Z,27.80
2022-08-05T13:56:19.290Z,27.80
2022-08-05T13:58:53.035Z,28.00
2022-08-05T14:01:25.835Z,28.10
2022-08-05T14:04:21.829Z,28.20
2022-08-05T14:06:58.735Z,28.40
2022-08-05T14:09:43.030Z,28.60
2022-08-05T14:12:18.345Z,29.80
2022-08-05T14:14:59.115Z,28.90
2022-08-05T14:17:26.690Z,30.50
2022-08-05T14:19:58.634Z,29.50
2022-08-05T14:22:30.290Z,30.80
2022-08-05T14:24:57.421Z,28.30
2022-08-05T14:27:24.404Z,28.20
2022-08-05T14:29:56.431Z,28.00
2022-08-05T14:32:27.784Z,27.80
2022-08-05T14:34:56.933Z,27.70
2022-08-05T14:37:47.990Z,28.60
2022-08-05T14:40:14.251Z,28.10
2022-08-05T14:42:45.278Z,27.60
2022-08-05T14:45:12.440Z,27.50
2022-08-05T14:48:02.612Z,27.50
2022-08-05T14:50:26.241Z,27.30
2022-08-05T14:52:57.504Z,27.50
2022-08-05T14:55:38.768Z,27.70
2022-08-05T14:58:11.575Z,27.80
2022-08-05T15:00:58.931Z,28.00
2022-08-05T15:03:33.654Z,28.30
2022-08-05T15:06:13.469Z,30.80
2022-08-05T15:08:59.834Z,28.50
2022-08-05T15:11:53.149Z,28.60
2022-08-05T15:14:35.050Z,26.80
2022-08-05T15:17:09.865Z,28.70
2022-08-05T15:19:56.377Z,28.90
2022-08-05T15:22:26.935Z,29.60
2022-08-05T15:24:56.640Z,28.70
2022-08-05T15:27:25.645Z,28.70
2022-08-05T15:29:54.239Z,28.70
2022-08-05T15:32:27.449Z,28.70
2022-08-05T15:34:56.983Z,28.80
2022-08-05T15:38:31.749Z,28.50
2022-08-05T15:40:58.547Z,28.90
2022-08-05T15:43:12.855Z,28.10
2022-08-05T15:45:46.052Z,28.10
2022-08-05T15:48:14.781Z,28.00
2022-08-05T15:50:43.853Z,27.90
2022-08-05T15:53:13.577Z,29.10
2022-08-05T15:56:01.346Z,27.60
2022-08-05T15:58:35.411Z,27.60
2022-08-05T16:01:17.441Z,27.40
2022-08-05T16:03:48.613Z,27.30
2022-08-05T16:06:20.329Z,27.90
2022-08-05T16:08:51.043Z,27.10
2022-08-05T16:11:42.838Z,27.20
2022-08-05T16:14:09.118Z,27.20
2022-08-05T16:16:36.310Z,27.30
2022-08-05T16:19:03.714Z,29.40
2022-08-05T16:22:00.662Z,28.10
2022-08-05T16:24:41.394Z,27.90
2022-08-05T16:27:07.371Z,29.30
2022-08-05T16:29:37.398Z,28.20
2022-08-05T16:32:09.831Z,29.30
2022-08-05T16:34:39.330Z,28.10
2022-08-05T16:38:02.620Z,26.40
2022-08-05T16:40:06.236Z,30.10
2022-08-05T16:42:35.758Z,27.80
2022-08-05T16:45:06.003Z,28.30
2022-08-05T16:47:54.213Z,27.70
2022-08-05T16:50:23.452Z,29.80
2022-08-05T16:52:50.500Z,27.20
2022-08-05T16:55:17.721Z,29.20
2022-08-05T16:58:00.369Z,26.60
2022-08-05T17:00:34.532Z,27.10
2022-08-05T17:03:15.164Z,26.30
2022-08-05T17:05:51.744Z,26.10
2022-08-05T17:08:36.799Z,27.30
2022-08-05T17:11:12.820Z,25.70
2022-08-05T17:13:46.282Z,25.40
2022-08-05T17:16:29.689Z,25.20
2022-08-05T17:18:59.569Z,25.10
2022-08-05T17:21:35.346Z,24.90
2022-08-05T17:24:18.628Z,26.30
2022-08-05T17:26:58.906Z,24.80
2022-08-05T17:29:33.718Z,24.90
2022-08-05T17:32:11.326Z,24.90
2022-08-05T17:34:39.947Z,25.10
2022-08-05T17:37:32.133Z,25.20
2022-08-05T17:39:56.221Z,26.10
2022-08-05T17:42:30.100Z,25.20
2022-08-05T17:44:59.926Z,23.00
2022-08-05T17:47:27.584Z,25.10
2022-08-05T17:50:04.293Z,24.90
2022-08-05T17:52:53.376Z,26.00
2022-08-05T17:55:34.234Z,24.70
2022-08-05T17:58:02.389Z,24.70
2022-08-05T18:00:29.857Z,25.00
2022-08-05T18:02:57.126Z,24.80
2022-08-05T18:05:28.238Z,24.80
2022-08-05T18:08:02.581Z,26.00
2022-08-05T18:10:32.151Z,25.00
2022-08-05T18:13:01.939Z,25.10
2022-08-05T18:15:31.041Z,25.90
2022-08-05T18:18:05.668Z,27.40
2022-08-05T18:20:38.425Z,24.00
2022-08-05T18:23:11.934Z,26.70
2022-08-05T18:25:45.415Z,26.30
2022-08-05T18:28:16.651Z,23.80
2022-08-05T18:30:53.058Z,26.50
2022-08-05T18:33:22.965Z,25.10
2022-08-05T18:36:03.650Z,24.90
2022-08-05T18:38:37.648Z,24.90
2022-08-05T18:41:56.683Z,22.80
2022-08-05T18:43:54.623Z,24.80
2022-08-05T18:46:25.939Z,26.20
2022-08-05T18:48:56.147Z,27.00
2022-08-05T18:52:04.811Z,24.50
2022-08-05T18:54:31.858Z,24.50
2022-08-05T18:57:01.178Z,24.20
2022-08-05T18:59:43.032Z,24.10
2022-08-05T19:02:28.037Z,23.80
2022-08-05T19:06:05.332Z,23.80
2022-08-05T19:07:55.211Z,23.30
2022-08-05T19:10:28.480Z,23.10
2022-08-05T19:12:56.993Z,22.80
2022-08-05T19:15:54.672Z,22.50
2022-08-05T19:18:21.833Z,24.20
2022-08-05T19:20:54.503Z,24.30
2022-08-05T19:24:07.068Z,22.00
2022-08-05T19:26:11.381Z,22.00
2022-08-05T19:28:43.327Z,21.10
2022-08-05T19:31:13.513Z,20.70
2022-08-05T19:33:48.197Z,23.20
2022-08-05T19:36:29.227Z,20.20
2022-08-05T19:39:00.844Z,20.10
2022-08-05T19:41:58.397Z,20.90
2022-08-05T19:44:19.226Z,19.70
2022-08-05T19:46:46.695Z,19.50
2022-08-05T19:49:16.689Z,19.40
2022-08-05T19:52:05.522Z,19.20
2022-08-05T19:54:34.861Z,19.10
2022-08-05T19:57:06.866Z,21.30
2022-08-05T20:00:00.901Z,18.90
2022-08-05T20:02:31.439Z,20.70
2022-08-05T20:04:59.790Z,18.60
2022-08-05T20:07:46.197Z,18.50
2022-08-05T20:10:17.050Z,20.20
2022-08-05T20:12:46.127Z,19.00
2022-08-05T20:15:23.399Z,19.90
2022-08-05T20:18:10.333Z,18.10
2022-08-05T20:20:56.852Z,20.30
2022-08-05T20:23:39.585Z,17.90
2022-08-05T20:26:17.342Z,17.90
2022-08-05T20:28:49.123Z,19.50
2022-08-05T20:31:28.444Z,20.00
2022-08-05T20:34:08.558Z,17.60
2022-08-05T20:36:35.544Z,17.60
2022-08-05T20:39:06.153Z,17.60
2022-08-05T20:41:44.526Z,19.60
2022-08-05T20:44:17.457Z,17.40
2022-08-05T20:46:47.684Z,17.80
2022-08-05T20:49:15.164Z,19.20
2022-08-05T20:51:53.468Z,17.20
2022-08-05T20:54:21.046Z,19.60
2022-08-05T20:56:48.836Z,17.00
2022-08-05T20:59:19.109Z,17.00
2022-08-05T21:01:53.616Z,18.10
2022-08-05T21:04:20.917Z,16.90
2022-08-05T21:06:53.934Z,18.70
2022-08-05T21:09:21.812Z,16.80
2022-08-05T21:12:10.655Z,16.70
2022-08-05T21:14:36.672Z,17.70
2022-08-05T21:17:05.447Z,16.60
2022-08-05T21:19:47.183Z,16.40
2022-08-05T21:22:21.727Z,18.10
2022-08-05T21:24:52.736Z,16.10
2022-08-05T21:27:24.992Z,16.50
2022-08-05T21:29:54.126Z,17.50
2022-08-05T21:32:26.612Z,18.20
2022-08-05T21:35:08.796Z,18.80
2022-08-05T21:37:47.401Z,17.50
2022-08-05T21:40:24.950Z,16.90
2022-08-05T21:42:53.672Z,15.50
2022-08-05T21:45:25.206Z,17.10
2022-08-05T21:48:10.510Z,17.80
2022-08-05T21:50:42.170Z,15.20
2022-08-05T21:53:20.228Z,15.10
2022-08-05T21:56:05.570Z,15.00
2022-08-05T21:58:34.133Z,15.00
2022-08-05T22:01:04.995Z,15.00
2022-08-05T22:03:52.543Z,16.50
2022-08-05T22:06:22.808Z,16.80
2022-08-05T22:08:52.050Z,14.60
2022-08-05T22:11:34.948Z,14.60
2022-08-05T22:14:34.117Z,14.50
2022-08-05T22:16:56.005Z,14.50
2022-08-05T22:20:00.389Z,14.50
2022-08-05T22:22:13.076Z,14.30
2022-08-05T22:25:00.434Z,14.30
2022-08-05T22:28:09.870Z,16.30
2022-08-05T22:30:32.480Z,14.10
2022-08-05T22:33:03.544Z,14.30
2022-08-05T22:35:48.021Z,14.70
2022-08-05T22:38:17.255Z,16.30
2022-08-05T22:40:49.524Z,14.00
2022-08-05T22:43:36.771Z,13.90
2022-08-05T22:46:13.390Z,13.90
2022-08-05T22:48:41.993Z,15.90
2022-08-05T22:51:15.936Z,13.80
2022-08-05T22:53:51.215Z,13.60
2022-08-05T22:56:30.570Z,13.90
2022-08-05T22:59:03.189Z,13.50
2022-08-05T23:02:03.930Z,13.40
2022-08-05T23:04:33.428Z,13.40
2022-08-05T23:07:00.341Z,13.30
2022-08-05T23:09:57.152Z,14.50
2022-08-05T23:12:17.733Z,14.00
2022-08-05T23:14:45.080Z,14.00
2022-08-05T23:17:34.968Z,11.20
2022-08-05T23:20:17.460Z,14.20
2022-08-05T23:22:47.729Z,14.80
2022-08-05T23:25:53.156Z,13.00
2022-08-05T23:28:06.768Z,13.00
2022-08-05T23:30:40.007Z,12.90
2022-08-05T23:33:15.949Z,12.80
2022-08-05T23:35:49.012Z,12.80
2022-08-05T23:38:16.962Z,14.00
2022-08-05T23:40:50.039Z,12.80
2022-08-05T23:43:25.031Z,12.70
2022-08-05T23:46:21.408Z,12.70
2022-08-05T23:49:00.305Z,12.70
2022-08-05T23:51:55.437Z,12.70
2022-08-05T23:54:30.497Z,12.60
2022-08-05T23:57:04.875Z,12.60
